Time;durP1;ratioP1;P1;durP2;ratioP2;P2;SDS_P1;SDS_P2;PMS_P1;PMS_P2;Temp;Humidity;BMP_temperature;BMP_pressure;BME280_temperature;BME280_humidity;BME280_pressure;Samples;Min_cycle;Max_cycle;Signal;HPM_P1;HPM_P2
2023/06/09 00:04:08;;;;;;;3.50;3.30;;;19.20;34.40;;;;;;10460257;28;20643;-81
2023/06/09 00:09:12;;;;;;;3.40;3.10;;;19.10;35.70;;;;;;10469560;28;20228;-81
2023/06/09 00:14:15;;;;;;;3.30;3.10;;;19.00;34.60;;;;;;10430246;28;20701;-81
2023/06/09 00:19:21;;;;;;;3.63;3.20;;;18.90;34.70;;;;;;10442908;28;20311;-81
2023/06/09 00:24:25;;;;;;;3.50;3.30;;;18.80;35.50;;;;;;10467468;28;20233;-81
2023/06/09 00:29:28;;;;;;;3.60;3.30;;;18.80;35.40;;;;;;10446156;28;20228;-81
2023/06/09 00:34:32;;;;;;;3.70;3.40;;;18.70;35.40;;;;;;10446348;28;20241;-81
2023/06/09 00:39:36;;;;;;;4.10;3.70;;;18.80;35.50;;;;;;10441302;28;20247;-82
2023/06/09 00:44:39;;;;;;;3.70;3.40;;;18.90;35.60;;;;;;10497750;28;20225;-81
2023/06/09 00:49:44;;;;;;;3.63;3.30;;;19.00;35.20;;;;;;10470047;28;20317;-81
2023/06/09 00:54:48;;;;;;;3.20;3.00;;;18.90;35.50;;;;;;10469804;28;20619;-81
2023/06/09 00:59:51;;;;;;;3.33;3.07;;;18.90;35.10;;;;;;10439182;28;20268;-81
2023/06/09 01:04:56;;;;;;;3.83;3.53;;;19.00;35.30;;;;;;10443957;28;20253;-82
2023/06/09 01:10:05;;;;;;;3.73;3.37;;;19.10;35.70;;;;;;10445814;28;20262;-81
2023/06/09 01:15:12;;;;;;;4.43;4.03;;;19.10;35.70;;;;;;10458297;28;20220;-81
2023/06/09 01:20:23;;;;;;;3.90;3.60;;;19.10;35.70;;;;;;10449819;28;20247;-81
2023/06/09 01:25:34;;;;;;;3.50;3.30;;;19.00;35.60;;;;;;10491346;28;20275;-81
2023/06/09 01:30:40;;;;;;;3.87;3.57;;;19.00;35.60;;;;;;10434333;28;20225;-81
2023/06/09 01:35:44;;;;;;;3.93;2.70;;;19.00;34.90;;;;;;10436828;28;20753;-81
2023/06/09 01:40:49;;;;;;;3.87;3.57;;;19.00;34.50;;;;;;10445689;28;20668;-81
2023/06/09 01:45:52;;;;;;;2.97;2.77;;;18.90;35.30;;;;;;10436613;28;20759;-81
2023/06/09 01:51:00;;;;;;;4.57;4.17;;;18.90;34.50;;;;;;10450162;28;20221;-82
2023/06/09 01:56:12;;;;;;;3.97;3.53;;;18.90;35.00;;;;;;10428488;28;20257;-81
2023/06/09 02:01:18;;;;;;;3.60;3.30;;;18.80;35.40;;;;;;10424250;28;20551;-81
2023/06/09 02:06:22;;;;;;;3.43;3.23;;;18.80;34.90;;;;;;10426831;28;20726;-81
2023/06/09 02:11:27;;;;;;;3.60;3.30;;;18.70;34.50;;;;;;10429933;28;20285;-78
2023/06/09 02:16:30;;;;;;;6.00;3.50;;;18.70;35.30;;;;;;10426754;28;20289;-77
2023/06/09 02:21:35;;;;;;;3.80;3.50;;;18.70;34.40;;;;;;10429233;28;20225;-78
2023/06/09 02:26:39;;;;;;;4.00;3.63;;;18.60;34.60;;;;;;10428845;28;20228;-77
2023/06/09 02:31:42;;;;;;;3.47;3.20;;;18.50;35.20;;;;;;10422634;28;20786;-76
2023/06/09 02:36:48;;;;;;;5.07;3.10;;;18.50;34.70;;;;;;10427253;28;20751;-78
2023/06/09 02:41:53;;;;;;;3.70;3.40;;;18.40;34.70;;;;;;10421644;28;20217;-77
2023/06/09 02:46:56;;;;;;;5.40;3.83;;;18.40;35.10;;;;;;10419233;28;20253;-78
2023/06/09 02:52:00;;;;;;;3.57;3.37;;;18.40;34.60;;;;;;10417841;28;20217;-75
2023/06/09 02:57:06;;;;;;;3.37;3.17;;;18.30;34.50;;;;;;10435077;28;20228;-77
2023/06/09 03:02:11;;;;;;;2.97;2.77;;;18.30;35.00;;;;;;10424007;28;20309;-75
2023/06/09 03:07:14;;;;;;;3.53;3.23;;;18.20;34.60;;;;;;10431773;28;20229;-76
2023/06/09 03:12:19;;;;;;;4.70;4.30;;;18.20;34.90;;;;;;10423173;28;20229;-76
2023/06/09 03:17:22;;;;;;;4.33;3.93;;;18.20;34.90;;;;;;10429320;28;20317;-75
2023/06/09 03:22:27;;;;;;;4.07;3.43;;;18.20;34.90;;;;;;10436639;28;20225;-76
2023/06/09 03:27:32;;;;;;;4.47;4.07;;;18.20;34.90;;;;;;10432529;28;20240;-76
2023/06/09 03:32:35;;;;;;;4.70;4.30;;;18.10;34.80;;;;;;10437278;28;20236;-76
2023/06/09 03:37:38;;;;;;;4.70;4.30;;;18.10;34.90;;;;;;10437809;28;20248;-75
2023/06/09 03:42:43;;;;;;;4.83;4.40;;;18.00;34.70;;;;;;10435166;28;20233;-76
2023/06/09 03:47:46;;;;;;;4.97;4.57;;;17.90;35.00;;;;;;10422846;28;20221;-76
2023/06/09 03:52:50;;;;;;;4.40;4.10;;;17.80;34.60;;;;;;10435796;28;20225;-76
2023/06/09 03:57:54;;;;;;;4.03;3.73;;;17.60;35.10;;;;;;10434916;28;20267;-77
2023/06/09 04:02:58;;;;;;;4.37;4.07;;;17.50;35.80;;;;;;10439166;28;20316;-76
2023/06/09 04:08:01;;;;;;;4.13;3.83;;;17.50;35.70;;;;;;10430795;28;20226;-76
2023/06/09 04:13:05;;;;;;;4.97;4.60;;;17.50;35.80;;;;;;10436860;28;20210;-76
2023/06/09 04:18:09;;;;;;;4.27;3.87;;;17.50;36.50;;;;;;10437098;28;20229;-76
2023/06/09 04:23:12;;;;;;;5.67;4.20;;;17.60;36.10;;;;;;10432147;28;20229;-75
2023/06/09 04:28:17;;;;;;;5.07;4.67;;;17.60;36.00;;;;;;10436952;28;20227;-76
2023/06/09 04:33:20;;;;;;;5.57;4.90;;;17.60;36.60;;;;;;10423996;28;20253;-75
2023/06/09 04:38:25;;;;;;;4.43;4.10;;;17.70;36.30;;;;;;10433060;28;20237;-75
2023/06/09 04:43:32;;;;;;;5.37;4.60;;;17.70;36.30;;;;;;10426269;28;20308;-75
2023/06/09 04:48:36;;;;;;;4.93;4.53;;;17.80;37.00;;;;;;10433135;28;20233;-76
2023/06/09 04:53:42;;;;;;;5.60;5.13;;;17.80;36.60;;;;;;10427878;28;20282;-75
2023/06/09 04:58:47;;;;;;;5.33;4.90;;;17.80;37.50;;;;;;10420155;28;20225;-75
2023/06/09 05:03:50;;;;;;;5.60;5.20;;;17.90;37.20;;;;;;10434521;28;20303;-76
2023/06/09 05:08:55;;;;;;;5.63;5.13;;;17.90;37.00;;;;;;10422905;28;20582;-76
2023/06/09 05:14:00;;;;;;;5.67;5.27;;;18.00;37.30;;;;;;10422497;28;20225;-75
2023/06/09 05:19:03;;;;;;;5.50;5.10;;;18.10;38.10;;;;;;10428764;28;20233;-76
2023/06/09 05:24:07;;;;;;;5.73;5.23;;;18.20;37.70;;;;;;10420500;28;20316;-76
2023/06/09 05:29:11;;;;;;;5.53;5.13;;;18.30;37.90;;;;;;10422901;28;20272;-76
2023/06/09 05:34:15;;;;;;;5.53;5.13;;;18.40;38.50;;;;;;10425789;28;20279;-76
2023/06/09 05:39:18;;;;;;;6.03;5.53;;;18.50;38.30;;;;;;10413161;28;20253;-76
2023/06/09 05:44:22;;;;;;;6.03;5.57;;;18.70;38.50;;;;;;10431576;28;20225;-77
2023/06/09 05:49:26;;;;;;;5.57;5.03;;;18.70;38.90;;;;;;10422122;28;20325;-76
2023/06/09 05:54:29;;;;;;;5.80;5.30;;;18.90;38.60;;;;;;10425700;28;20224;-76
2023/06/09 05:59:34;;;;;;;6.03;5.53;;;19.00;38.60;;;;;;10423951;28;20245;-76
2023/06/09 06:04:37;;;;;;;5.23;4.83;;;19.20;39.40;;;;;;10421569;28;20304;-76
2023/06/09 06:09:41;;;;;;;5.90;5.40;;;19.30;38.90;;;;;;10420193;28;20227;-77
2023/06/09 06:14:45;;;;;;;5.70;5.20;;;19.50;39.10;;;;;;10427889;28;20233;-76
2023/06/09 06:19:48;;;;;;;5.63;5.13;;;19.70;40.10;;;;;;10414459;28;20232;-77
2023/06/09 06:24:52;;;;;;;5.00;4.50;;;19.80;39.30;;;;;;10431120;28;20225;-77
2023/06/09 06:29:56;;;;;;;5.10;4.70;;;20.00;39.40;;;;;;10434550;28;20200;-76
2023/06/09 06:35:00;;;;;;;4.63;4.33;;;20.20;39.70;;;;;;10440290;28;20251;-77
2023/06/09 06:40:04;;;;;;;4.13;3.83;;;20.50;39.10;;;;;;10426384;28;20665;-76
2023/06/09 06:45:10;;;;;;;4.20;3.90;;;20.60;39.00;;;;;;10417999;28;20273;-76
2023/06/09 06:50:13;;;;;;;4.20;3.90;;;20.80;39.10;;;;;;10438520;28;20327;-77
2023/06/09 06:55:17;;;;;;;3.63;3.43;;;21.00;38.90;;;;;;10424115;28;20229;-78
2023/06/09 07:00:22;;;;;;;4.10;3.83;;;21.20;38.70;;;;;;10426314;28;20309;-77
2023/06/09 07:05:25;;;;;;;4.17;3.37;;;21.40;38.80;;;;;;10423039;28;20246;-76
2023/06/09 07:10:29;;;;;;;3.20;3.00;;;21.60;38.10;;;;;;10424697;28;20252;-77
2023/06/09 07:15:38;;;;;;;3.40;3.20;;;21.80;38.10;;;;;;10422920;28;20311;-77
2023/06/09 07:20:43;;;;;;;3.60;3.40;;;22.00;38.30;;;;;;10416724;28;20312;-75
2023/06/09 07:25:47;;;;;;;3.73;3.50;;;22.20;37.50;;;;;;10421054;28;20655;-75
2023/06/09 07:30:51;;;;;;;3.80;3.60;;;22.40;37.50;;;;;;10420139;28;20308;-77
2023/06/09 07:35:55;;;;;;;3.67;3.37;;;22.60;37.00;;;;;;10418448;28;20323;-77
2023/06/09 07:40:58;;;;;;;3.50;3.30;;;22.80;37.10;;;;;;10417597;28;20225;-76
2023/06/09 07:46:02;;;;;;;4.30;4.00;;;23.00;36.60;;;;;;10424945;28;20236;-74
2023/06/09 07:51:06;;;;;;;3.33;3.13;;;23.20;35.90;;;;;;10430187;28;20320;-74
2023/06/09 07:56:09;;;;;;;4.00;3.67;;;23.50;36.10;;;;;;10424232;28;20262;-74
2023/06/09 08:01:14;;;;;;;4.07;3.77;;;23.60;35.90;;;;;;10397227;28;20221;-75
2023/06/09 08:06:17;;;;;;;3.63;3.30;;;23.80;35.00;;;;;;10410744;28;20315;-75
2023/06/09 08:11:20;;;;;;;3.40;3.20;;;24.10;35.30;;;;;;10408856;28;20248;-74
2023/06/09 08:16:25;;;;;;;3.90;3.60;;;24.30;35.10;;;;;;10409542;28;20233;-76
2023/06/09 08:21:28;;;;;;;3.87;3.57;;;24.50;34.50;;;;;;10408369;28;20225;-74
2023/06/09 08:26:31;;;;;;;3.60;3.40;;;24.70;34.40;;;;;;10403582;28;20222;-74
2023/06/09 08:31:37;;;;;;;3.87;3.57;;;24.90;34.10;;;;;;10402161;28;20727;-74
2023/06/09 08:36:40;;;;;;;3.90;3.60;;;25.10;33.40;;;;;;10398225;28;20826;-71
2023/06/09 08:41:46;;;;;;;3.87;3.53;;;25.30;33.50;;;;;;10403674;28;20220;-71
2023/06/09 08:46:52;;;;;;;4.00;3.70;;;25.50;33.70;;;;;;10416763;28;20224;-74
2023/06/09 08:51:56;;;;;;;3.93;3.63;;;25.70;31.30;;;;;;10418806;28;20721;-74
2023/06/09 08:57:00;;;;;;;3.77;3.47;;;25.60;31.80;;;;;;10402969;28;20235;-72
2023/06/09 09:02:05;;;;;;;4.07;3.77;;;25.70;31.60;;;;;;10405467;28;20235;-74
2023/06/09 09:07:11;;;;;;;5.50;3.60;;;25.70;31.00;;;;;;10409660;28;20217;-74
2023/06/09 09:12:14;;;;;;;3.70;3.40;;;25.70;30.80;;;;;;10404808;28;20996;-75
2023/06/09 09:17:20;;;;;;;3.90;3.60;;;25.80;31.60;;;;;;10411109;28;20232;-73
2023/06/09 09:22:23;;;;;;;3.90;3.60;;;25.80;31.50;;;;;;10403825;28;20228;-74
2023/06/09 09:27:27;;;;;;;4.00;3.70;;;25.80;31.40;;;;;;10401951;28;20849;-73
2023/06/09 09:32:32;;;;;;;4.03;3.73;;;25.90;31.40;;;;;;10411629;28;20863;-74
2023/06/09 09:37:35;;;;;;;4.10;3.80;;;26.10;30.70;;;;;;10403524;28;20321;-73
2023/06/09 09:42:40;;;;;;;3.60;3.40;;;26.20;30.20;;;;;;10419831;28;20221;-74
2023/06/09 09:47:45;;;;;;;3.40;3.20;;;26.20;30.00;;;;;;10407002;28;20224;-74
2023/06/09 09:52:51;;;;;;;3.63;3.37;;;26.40;30.20;;;;;;10416121;28;20225;-74
2023/06/09 09:57:56;;;;;;;4.30;4.00;;;26.50;29.50;;;;;;10400912;28;20260;-77
2023/06/09 10:03:06;;;;;;;4.00;3.70;;;26.60;29.50;;;;;;10418384;28;20229;-78
2023/06/09 10:08:11;;;;;;;3.60;3.30;;;26.60;29.50;;;;;;10401120;28;20651;-78
2023/06/09 10:13:41;;;;;;;6.10;3.67;;;26.70;29.40;;;;;;10421085;28;20228;-77
2023/06/09 10:18:46;;;;;;;3.67;3.37;;;27.00;29.40;;;;;;10430167;28;20225;-78
2023/06/09 10:23:50;;;;;;;3.67;3.37;;;27.10;29.20;;;;;;10423921;28;20915;-78
2023/06/09 10:28:53;;;;;;;5.50;3.70;;;27.30;29.10;;;;;;10428928;28;20271;-79
2023/06/09 10:33:58;;;;;;;4.37;3.97;;;27.50;29.10;;;;;;10420649;28;20739;-81
2023/06/09 10:39:16;;;;;;;3.90;3.60;;;27.70;28.30;;;;;;10427136;28;20779;-80
2023/06/09 10:44:30;;;;;;;3.63;3.37;;;27.80;27.90;;;;;;10429249;28;20350;-80
2023/06/09 10:49:39;;;;;;;3.83;3.60;;;27.90;27.20;;;;;;10443400;28;20222;-80
2023/06/09 10:54:43;;;;;;;3.60;3.40;;;27.90;27.10;;;;;;10440058;28;20240;-78
2023/06/09 10:59:55;;;;;;;3.70;3.40;;;28.00;27.60;;;;;;10423193;28;21026;-78
2023/06/09 11:05:00;;;;;;;3.23;3.03;;;28.10;26.70;;;;;;10423526;28;20230;-79
2023/06/09 11:10:37;;;;;;;3.77;3.47;;;28.20;26.80;;;;;;10450046;28;20281;-80
2023/06/09 11:16:03;;;;;;;3.97;3.67;;;28.30;27.00;;;;;;10470407;28;20895;-79
2023/06/09 11:21:23;;;;;;;3.93;3.63;;;28.40;26.00;;;;;;10480062;28;20704;-79
2023/06/09 11:26:26;;;;;;;4.07;3.60;;;28.40;25.10;;;;;;10439542;28;20229;-79
2023/06/09 11:31:29;;;;;;;3.57;3.27;;;28.50;26.20;;;;;;10433811;28;20296;-78
2023/06/09 11:36:35;;;;;;;3.87;3.50;;;28.70;26.10;;;;;;10436444;28;20224;-79
2023/06/09 11:41:39;;;;;;;3.80;3.50;;;28.80;25.20;;;;;;10440025;28;20301;-78
2023/06/09 11:46:42;;;;;;;3.90;3.60;;;28.90;25.60;;;;;;10441000;28;20225;-76
2023/06/09 11:52:06;;;;;;;4.03;3.73;;;29.10;25.30;;;;;;10443911;28;20225;-71
2023/06/09 11:57:11;;;;;;;3.90;3.60;;;29.20;24.40;;;;;;10477773;28;20228;-74
2023/06/09 12:02:17;;;;;;;4.27;3.90;;;29.30;24.30;;;;;;10475926;28;20248;-74
2023/06/09 12:07:22;;;;;;;4.37;4.03;;;29.30;24.00;;;;;;10463533;28;20228;-73
2023/06/09 12:12:26;;;;;;;4.10;3.80;;;29.30;23.90;;;;;;10476962;28;20785;-75
2023/06/09 12:17:29;;;;;;;4.70;3.97;;;29.20;23.80;;;;;;10476140;28;20239;-74
2023/06/09 12:22:40;;;;;;;4.10;3.80;;;29.20;23.80;;;;;;10478291;28;20870;-74
2023/06/09 12:27:43;;;;;;;3.80;3.60;;;29.20;22.40;;;;;;10476838;28;20228;-74
2023/06/09 12:32:46;;;;;;;3.80;3.50;;;29.20;23.50;;;;;;10475797;28;20307;-74
2023/06/09 12:37:51;;;;;;;4.17;3.70;;;29.20;23.60;;;;;;10466380;28;20682;-74
2023/06/09 12:42:54;;;;;;;4.23;3.93;;;29.20;23.10;;;;;;10409616;28;20313;-76
2023/06/09 12:47:57;;;;;;;4.20;3.90;;;29.20;22.90;;;;;;10432503;28;20232;-75
2023/06/09 12:53:02;;;;;;;3.80;3.60;;;29.20;22.60;;;;;;10434086;28;20238;-75
2023/06/09 12:58:06;;;;;;;4.17;3.77;;;29.20;22.20;;;;;;10412049;28;20221;-73
2023/06/09 13:03:11;;;;;;;3.77;3.57;;;29.20;21.90;;;;;;10415231;28;20323;-74
2023/06/09 13:08:16;;;;;;;5.03;3.83;;;29.30;22.10;;;;;;10427731;28;20225;-77
2023/06/09 13:13:19;;;;;;;4.40;4.10;;;29.40;21.30;;;;;;10420947;28;20231;-74
2023/06/09 13:18:23;;;;;;;4.83;3.70;;;29.40;21.90;;;;;;10432206;28;20229;-75
2023/06/09 13:23:27;;;;;;;3.77;3.57;;;29.50;21.90;;;;;;10417509;28;20236;-74
2023/06/09 13:28:30;;;;;;;3.83;3.53;;;29.50;21.70;;;;;;10425283;28;20224;-74
2023/06/09 13:33:33;;;;;;;3.90;3.63;;;29.50;21.00;;;;;;10423147;28;20945;-75
2023/06/09 13:38:39;;;;;;;4.10;3.80;;;29.50;20.90;;;;;;10432388;28;20241;-73
2023/06/09 13:43:42;;;;;;;4.00;3.70;;;29.50;20.90;;;;;;10427269;28;20904;-74
2023/06/09 13:48:45;;;;;;;4.00;3.60;;;29.50;20.90;;;;;;10397997;28;20320;-76
2023/06/09 13:53:50;;;;;;;3.70;3.50;;;29.50;20.90;;;;;;10420039;28;20717;-74
2023/06/09 13:58:53;;;;;;;4.10;3.80;;;29.60;20.70;;;;;;10409772;28;20323;-72
2023/06/09 14:03:56;;;;;;;3.63;3.33;;;29.70;20.90;;;;;;10423939;28;20217;-74
2023/06/09 14:09:01;;;;;;;3.83;3.40;;;29.70;20.70;;;;;;10415159;28;20224;-73
2023/06/09 14:14:04;;;;;;;3.87;3.50;;;29.80;20.00;;;;;;10417331;28;20267;-76
2023/06/09 14:19:07;;;;;;;4.20;3.80;;;29.90;20.30;;;;;;10418544;28;20613;-71
2023/06/09 14:24:12;;;;;;;3.97;3.67;;;30.00;20.00;;;;;;10408393;28;20315;-75
2023/06/09 14:29:15;;;;;;;3.83;3.53;;;30.10;19.20;;;;;;10417208;28;20228;-74
2023/06/09 14:34:19;;;;;;;4.00;3.70;;;30.10;19.40;;;;;;10411156;28;20225;-74
2023/06/09 14:39:24;;;;;;;3.90;3.60;;;30.20;19.50;;;;;;10445335;28;20239;-77
2023/06/09 14:44:27;;;;;;;4.07;3.77;;;30.30;18.60;;;;;;10409751;28;20263;-77
2023/06/09 14:49:30;;;;;;;4.73;3.80;;;30.20;19.20;;;;;;10410535;28;20821;-77
2023/06/09 14:54:35;;;;;;;4.10;3.80;;;30.20;19.50;;;;;;10402547;28;20239;-76
2023/06/09 14:59:38;;;;;;;5.47;3.60;;;30.10;19.20;;;;;;10420220;28;20306;-77
2023/06/09 15:04:41;;;;;;;3.90;3.60;;;30.00;19.40;;;;;;10417575;28;20232;-77
2023/06/09 15:09:46;;;;;;;4.90;4.50;;;29.90;19.70;;;;;;10422062;28;20229;-76
2023/06/09 15:14:49;;;;;;;4.57;4.17;;;29.80;19.70;;;;;;10413756;28;20225;-76
2023/06/09 15:20:03;;;;;;;4.30;4.00;;;29.80;20.00;;;;;;10419388;28;20229;-75
2023/06/09 15:25:10;;;;;;;4.47;4.00;;;29.70;20.10;;;;;;10416893;28;20940;-76
2023/06/09 15:30:13;;;;;;;4.10;3.80;;;29.70;19.40;;;;;;10416438;28;20229;-76
2023/06/09 15:35:17;;;;;;;4.30;3.90;;;29.70;19.60;;;;;;10420552;28;20279;-76
2023/06/09 15:40:21;;;;;;;4.07;3.77;;;29.60;19.40;;;;;;10415413;28;20315;-77
2023/06/09 15:45:25;;;;;;;4.30;3.93;;;29.60;19.00;;;;;;10412674;28;20748;-77
2023/06/09 15:50:28;;;;;;;4.10;3.80;;;29.60;19.20;;;;;;10433165;28;20217;-77
2023/06/09 15:55:33;;;;;;;4.10;3.80;;;29.70;19.50;;;;;;10444111;28;20231;-77
2023/06/09 16:00:36;;;;;;;4.20;3.77;;;29.70;18.70;;;;;;10473240;28;20224;-77
2023/06/09 16:05:41;;;;;;;3.90;3.70;;;29.80;18.90;;;;;;10446791;28;20232;-78
2023/06/09 16:10:47;;;;;;;4.17;3.87;;;29.80;19.00;;;;;;10441069;28;20312;-77
2023/06/09 16:15:57;;;;;;;4.17;3.57;;;29.80;18.60;;;;;;10421529;28;20701;-78
2023/06/09 16:21:02;;;;;;;3.90;3.60;;;29.80;18.40;;;;;;10516067;28;20228;-77
2023/06/09 16:26:07;;;;;;;4.00;3.70;;;29.80;18.30;;;;;;10429860;28;20588;-77
2023/06/09 16:31:10;;;;;;;4.23;3.83;;;29.90;18.30;;;;;;10440179;28;20229;-78
2023/06/09 16:36:17;;;;;;;4.23;3.93;;;29.90;18.50;;;;;;10447122;28;20244;-77
2023/06/09 16:41:22;;;;;;;4.50;4.20;;;29.90;18.20;;;;;;10407780;28;20233;-78
2023/06/09 16:46:25;;;;;;;4.50;4.07;;;29.90;18.70;;;;;;10409915;28;20233;-77
2023/06/09 16:51:30;;;;;;;4.50;4.20;;;29.90;18.60;;;;;;10445493;28;20635;-77
2023/06/09 16:56:34;;;;;;;5.63;4.03;;;29.90;18.40;;;;;;10440165;28;20230;-78
2023/06/09 17:01:37;;;;;;;4.33;4.03;;;29.80;18.20;;;;;;10481742;28;20230;-78
2023/06/09 17:06:41;;;;;;;4.93;4.43;;;29.80;18.50;;;;;;10477332;28;20224;-77
2023/06/09 17:11:47;;;;;;;4.20;3.90;;;29.80;18.60;;;;;;10439138;28;20549;-77
2023/06/09 17:16:50;;;;;;;4.93;4.40;;;29.80;18.40;;;;;;10418802;28;20660;-78
2023/06/09 17:21:53;;;;;;;4.43;4.10;;;29.80;18.80;;;;;;10427679;28;20221;-77
2023/06/09 17:27:04;;;;;;;4.50;4.20;;;29.80;19.10;;;;;;10421679;28;20633;-78
2023/06/09 17:32:09;;;;;;;4.70;4.30;;;29.80;18.50;;;;;;10478979;28;20224;-77
2023/06/09 17:37:14;;;;;;;4.47;4.10;;;29.80;19.10;;;;;;10451868;28;20315;-79
2023/06/09 17:42:18;;;;;;;4.23;3.90;;;29.80;19.20;;;;;;10427589;28;20267;-77
2023/06/09 17:47:21;;;;;;;4.30;4.00;;;29.80;19.10;;;;;;10440287;28;20268;-77
2023/06/09 17:52:25;;;;;;;4.37;4.07;;;29.90;19.40;;;;;;10443475;28;20225;-77
2023/06/09 17:57:30;;;;;;;4.33;4.03;;;29.90;19.20;;;;;;10447530;28;20282;-77
2023/06/09 18:02:33;;;;;;;4.23;3.90;;;29.90;18.90;;;;;;10441660;28;20233;-76
2023/06/09 18:07:36;;;;;;;4.60;4.20;;;29.90;19.00;;;;;;10427363;28;20221;-76
2023/06/09 18:12:41;;;;;;;4.50;4.10;;;30.00;18.80;;;;;;10422673;28;20224;-77
2023/06/09 18:17:45;;;;;;;4.33;4.03;;;30.00;18.70;;;;;;10425990;28;20225;-77
2023/06/09 18:22:48;;;;;;;5.33;4.50;;;29.90;18.70;;;;;;10419149;28;20271;-77
2023/06/09 18:27:53;;;;;;;4.60;4.30;;;29.90;18.90;;;;;;10416601;28;20603;-77
2023/06/09 18:32:56;;;;;;;4.60;4.30;;;29.80;18.90;;;;;;10435491;28;20811;-78
2023/06/09 18:37:59;;;;;;;5.50;4.20;;;29.70;19.00;;;;;;10437294;28;20252;-77
2023/06/09 18:43:04;;;;;;;4.63;4.33;;;29.50;18.90;;;;;;10428164;28;20678;-79
2023/06/09 18:48:07;;;;;;;4.70;4.40;;;29.40;18.80;;;;;;10424093;28;20756;-77
2023/06/09 18:53:11;;;;;;;4.97;4.57;;;29.20;19.00;;;;;;10470983;28;20818;-77
2023/06/09 18:58:15;;;;;;;5.53;4.47;;;29.10;19.10;;;;;;10415465;28;20229;-76
2023/06/09 19:03:18;;;;;;;5.60;4.13;;;28.90;19.20;;;;;;10425854;28;20228;-76
2023/06/09 19:08:22;;;;;;;4.27;3.97;;;28.70;19.20;;;;;;10424233;28;20245;-78
2023/06/09 19:13:26;;;;;;;4.30;4.00;;;28.60;19.40;;;;;;10417087;28;20988;-77
2023/06/09 19:18:30;;;;;;;4.30;4.00;;;28.50;19.30;;;;;;10426329;28;20341;-77
2023/06/09 19:23:33;;;;;;;4.80;4.40;;;28.30;19.50;;;;;;10431321;28;20229;-73
2023/06/09 19:28:38;;;;;;;4.83;4.53;;;28.20;19.80;;;;;;10449707;28;20267;-72
2023/06/09 19:33:42;;;;;;;5.70;5.20;;;28.00;20.10;;;;;;10448474;28;20749;-73
2023/06/09 19:38:45;;;;;;;5.20;4.80;;;27.90;20.00;;;;;;10422009;28;20236;-73
2023/06/09 19:43:50;;;;;;;5.27;4.87;;;27.70;19.90;;;;;;10413112;28;20311;-72
2023/06/09 19:48:53;;;;;;;6.07;4.90;;;27.50;20.20;;;;;;10439654;28;20229;-73
2023/06/09 19:53:58;;;;;;;5.93;5.30;;;27.40;20.40;;;;;;10407926;28;20243;-73
2023/06/09 19:59:07;;;;;;;5.80;5.30;;;27.30;20.70;;;;;;10439299;28;20304;-71
2023/06/09 20:04:10;;;;;;;5.70;5.17;;;27.10;21.00;;;;;;10439601;28;20316;-73
2023/06/09 20:09:13;;;;;;;5.40;4.90;;;26.90;21.00;;;;;;10438723;28;20240;-72
2023/06/09 20:14:18;;;;;;;5.80;5.40;;;26.70;21.20;;;;;;10438643;28;20232;-73
2023/06/09 20:19:21;;;;;;;5.17;4.80;;;26.50;21.70;;;;;;10423697;28;20364;-74
2023/06/09 20:24:25;;;;;;;5.50;5.10;;;26.40;21.80;;;;;;10411828;28;20586;-74
2023/06/09 20:29:30;;;;;;;5.57;5.17;;;26.30;22.00;;;;;;10415612;28;20214;-74
2023/06/09 20:34:33;;;;;;;5.30;4.90;;;26.10;22.50;;;;;;10446271;28;20268;-75
2023/06/09 20:39:37;;;;;;;5.70;5.10;;;26.10;22.40;;;;;;10446038;28;20245;-73
2023/06/09 20:44:42;;;;;;;5.70;5.27;;;26.00;22.70;;;;;;10415828;28;20245;-74
2023/06/09 20:49:46;;;;;;;6.23;5.33;;;26.00;23.10;;;;;;10406162;28;20705;-74
2023/06/09 20:54:50;;;;;;;5.80;5.40;;;25.90;22.90;;;;;;10443287;28;20279;-74
2023/06/09 20:59:54;;;;;;;5.00;4.70;;;25.90;22.90;;;;;;10445853;28;20596;-74
2023/06/09 21:04:59;;;;;;;6.00;5.60;;;25.80;23.10;;;;;;10444612;28;20271;-74
2023/06/09 21:10:02;;;;;;;5.60;5.20;;;25.70;23.60;;;;;;10436675;28;20675;-74
2023/06/09 21:15:08;;;;;;;5.50;5.10;;;25.50;23.10;;;;;;10465258;28;20637;-74
2023/06/09 21:20:13;;;;;;;5.20;4.80;;;25.40;23.60;;;;;;10518440;28;20225;-74
2023/06/09 21:25:16;;;;;;;5.07;4.67;;;25.30;23.40;;;;;;10443343;28;20261;-74
2023/06/09 21:30:21;;;;;;;4.87;4.43;;;25.20;23.50;;;;;;10413798;28;20222;-74
2023/06/09 21:35:25;;;;;;;4.63;4.27;;;25.10;23.70;;;;;;10411413;28;21640;-74
2023/06/09 21:40:28;;;;;;;5.23;4.83;;;25.10;23.70;;;;;;10415077;28;20235;-74
2023/06/09 21:45:33;;;;;;;4.83;4.43;;;24.90;23.70;;;;;;10418538;28;20232;-75
2023/06/09 21:50:37;;;;;;;5.30;4.90;;;24.90;24.00;;;;;;10413889;28;20289;-74
2023/06/09 21:55:41;;;;;;;5.20;4.90;;;24.80;24.00;;;;;;10415985;28;20245;-75
2023/06/09 22:00:46;;;;;;;5.53;5.13;;;24.70;24.10;;;;;;10416209;28;20350;-75
2023/06/09 22:05:49;;;;;;;5.33;4.97;;;24.70;24.60;;;;;;10416110;28;20226;-75
2023/06/09 22:10:52;;;;;;;5.23;4.83;;;24.60;24.20;;;;;;10415976;28;20237;-75
2023/06/09 22:15:57;;;;;;;5.03;4.67;;;24.50;24.50;;;;;;10417326;28;20224;-75
2023/06/09 22:21:00;;;;;;;5.67;5.27;;;24.40;24.90;;;;;;10416331;28;20311;-75
2023/06/09 22:26:03;;;;;;;5.30;4.80;;;24.30;24.70;;;;;;10419124;28;20228;-76
2023/06/09 22:31:09;;;;;;;5.97;5.57;;;24.30;24.90;;;;;;10420559;28;20297;-75
2023/06/09 22:36:12;;;;;;;5.30;4.93;;;24.30;25.40;;;;;;10414381;28;20233;-75
2023/06/09 22:41:15;;;;;;;5.57;5.17;;;24.20;25.00;;;;;;10419717;28;20249;-75
2023/06/09 22:46:20;;;;;;;5.77;5.37;;;24.10;25.00;;;;;;10418770;28;20328;-75
2023/06/09 22:51:23;;;;;;;5.90;5.50;;;24.10;25.30;;;;;;10415976;28;20974;-75
2023/06/09 22:56:27;;;;;;;5.60;5.20;;;24.00;25.20;;;;;;10417109;28;20320;-75
2023/06/09 23:01:31;;;;;;;5.63;5.13;;;23.90;25.20;;;;;;10416820;28;20256;-75
2023/06/09 23:06:35;;;;;;;5.47;5.07;;;23.80;25.60;;;;;;10413987;28;20228;-75
2023/06/09 23:11:38;;;;;;;5.13;4.73;;;23.70;25.50;;;;;;10421640;28;20787;-75
2023/06/09 23:16:43;;;;;;;5.20;4.90;;;23.60;25.50;;;;;;10415222;28;20283;-76
2023/06/09 23:21:50;;;;;;;5.60;5.20;;;23.50;25.80;;;;;;10416017;28;20225;-75
2023/06/09 23:26:53;;;;;;;5.53;5.13;;;23.50;25.70;;;;;;10423928;28;20731;-76
2023/06/09 23:31:57;;;;;;;5.13;4.73;;;23.40;25.80;;;;;;10426240;28;20260;-75
2023/06/09 23:37:04;;;;;;;6.10;5.50;;;23.40;26.30;;;;;;10421911;28;20980;-75
2023/06/09 23:42:08;;;;;;;5.70;5.30;;;23.30;26.10;;;;;;10419769;28;20700;-75
2023/06/09 23:47:13;;;;;;;5.33;5.03;;;23.20;26.20;;;;;;10425578;28;20810;-75
2023/06/09 23:52:16;;;;;;;5.87;5.47;;;23.00;26.50;;;;;;10418442;28;20308;-75
2023/06/09 23:57:19;;;;;;;5.77;5.37;;;22.90;26.40;;;;;;10421554;28;20332;-75
